サンクトペテルブルク の空港の天気 - METARとTAF

プルコヴォ空港(サンクトペテルブルグ) ( ULLI / LED ) - ロシア サンクトペテルブルク
飛行場実況気象(Metar)
観測時間07/17 12:30 MSK (07/17 09:30 UTC)
風向・風速東北東 8m/s
視程10km以上
天気現象
なし
気温30℃
湿度33%
気圧1015hPa
METARULLI 170930Z 06008MPS CAVOK 30/12 Q1015 R10R/090060 NOSIG
過去の天気等 Google飛行場航空写真 Wunderground天気予報

過去48時間のMETAR

飛行場予報(TAF)
発表時間: 7/17 10:58 MSK (7/17 07:58 UTC)
予報対象時間: 17日12時 MSK ~ 18日12時 MSK
風向・風速北東 5m/s 瞬間風速 10m/s
視程10km以上
なし
17日12時 MSK ~ 17日18時 MSK に一時的に
風向・風速東北東 7m/s 瞬間風速 13m/s
全天の4割程度の雲 雲底高度 1220m
17日18時 MSK ~ 17日20時 MSK に徐々に
風向・風速東 3m/s 瞬間風速 8m/s
18日3時 MSK ~ 18日6時 MSK に一時的に
視程3100m
天気現象地霧 もや
全天の4割程度の雲 雲底高度 340m
18日10時 MSK ~ 18日12時 MSK に徐々に
風向・風速北東 5m/s 瞬間風速 10m/s
TAF ULLI 170758Z 1709/1809 05005G10MPS CAVOK TX30/1710Z TN16/1802Z
TEMPO 1709/1715 07007G13MPS SCT040
BECMG 1715/1717 08003G08MPS
TEMPO 1800/1803 3100 MIFG BR SCT011
BECMG 1807/1809 05005G10MPS